Currently 54°F in Anza, California, USA
54°F
56°F / 53°F
7 mph NW
0.00"
Wednesday, April 25, 2018 3:40 AM PDT

Anza, California Weather Summary
Last 36 Hours

Temperature Winds Hourly Humidity Dewpoint
Time Report Norm Report Norm Max Gusts Precip. Rpt. Norm Rpt. Norm Pressure
1Wed 03:40 AM  54.2°F  48°F  7 mph NW  5 mph  10 mph  0.00"  40%  70%  30°F  38°F  N/A
Wed 03:00 AM  54.2°F  48°F  6 mph NW  6 mph  9 mph  0.00"  42%  70%  31°F  39°F  N/A
Wed 02:00 AM  54.0°F  49°F  6 mph NW  6 mph  9 mph  0.00"  46%  71%  33°F  39°F  N/A
2Wed 01:02 AM  56.1°F  49°F  6 mph W  6 mph  10 mph  ----  47%  71%  35°F  40°F  N/A
Wed 01:00 AM  56.0°F  49°F  6 mph SW  6 mph  11 mph  0.00"  47%  71%  35°F  40°F  N/A
3Wed 12:21 AM  52.8°F  49°F  8 mph NW  6 mph  10 mph  ----  53%  72%  35°F  40°F  N/A
Wed 12:00 AM  55.5°F  50°F  6 mph NW  6 mph  10 mph  0.00"  49%  72%  36°F  40°F  N/A
Tue 11:00 PM  56.5°F  51°F  6 mph N  7 mph  10 mph  0.00"  48%  71%  37°F  41°F  N/A
Tue 10:00 PM  56.8°F  52°F  6 mph NW  7 mph  9 mph  0.00"  42%  69%  33°F  42°F  N/A
Tue 09:00 PM  58.9°F  54°F  6 mph N  7 mph  10 mph  0.00"  37%  66%  32°F  43°F  N/A
Tue 08:00 PM  62.2°F  57°F  6 mph NW  8 mph  14 mph  0.00"  32%  61%  31°F  43°F  N/A
Tue 07:00 PM  66.7°F  62°F  8 mph W  10 mph  20 mph  0.00"  31%  54%  34°F  44°F  N/A
Tue 06:00 PM  73.5°F  66°F  14 mph W  12 mph  17 mph  0.00"  29%  46%  38°F  44°F  N/A
Tue 05:00 PM  77.2°F  69°F  13 mph W  13 mph  18 mph  0.00"  23%  41%  35°F  43°F  N/A
Tue 04:00 PM  75.1°F  70°F  10 mph W  12 mph  21 mph  0.00"  26%  36%  36°F  41°F  N/A
Tue 03:00 PM  81.4°F  71°F  15 mph W  12 mph  23 mph  0.00"  16%  35%  30°F  41°F  N/A
Tue 02:00 PM  81.1°F  71°F  10 mph W  11 mph  23 mph  0.00"  19%  34%  33°F  40°F  N/A
Tue 01:00 PM  80.5°F  70°F  11 mph W  11 mph  18 mph  0.00"  19%  35%  32°F  40°F  N/A
Tue 12:00 PM  80.7°F  69°F  10 mph W  11 mph  19 mph  0.00"  19%  37%  33°F  40°F  N/A
Tue 11:00 AM  79.0°F  67°F  7 mph NW  11 mph  13 mph  0.00"  19%  39%  31°F  40°F  N/A
Tue 10:00 AM  75.7°F  65°F  8 mph NW  10 mph  14 mph  0.00"  19%  42%  28°F  40°F  N/A
Tue 09:00 AM  70.5°F  61°F  8 mph NW  9 mph  13 mph  0.00"  29%  48%  35°F  41°F  N/A
Tue 08:00 AM  64.5°F  56°F  11 mph NW  8 mph  14 mph  0.00"  41%  58%  39°F  41°F  N/A
Tue 07:00 AM  57.6°F  49°F  4 mph W  6 mph  8 mph  0.00"  50%  69%  38°F  39°F  N/A
Tue 06:00 AM  53.9°F  47°F  calm  6 mph  10 mph  0.00"  59%  69%  39°F  37°F  N/A
Tue 05:00 AM  54.6°F  47°F  7 mph NW  6 mph  10 mph  0.00"  55%  70%  38°F  37°F  N/A
Tue 04:00 AM  52.0°F  47°F  6 mph NW  6 mph  10 mph  0.00"  60%  71%  38°F  38°F  N/A
Tue 03:00 AM  53.5°F  48°F  7 mph NW  6 mph  9 mph  0.00"  57%  71%  38°F  39°F  N/A
Tue 02:00 AM  54.3°F  48°F  5 mph NW  6 mph  10 mph  0.00"  56%  72%  38°F  39°F  N/A
Tue 01:00 AM  55.9°F  49°F  6 mph NW  6 mph  9 mph  0.00"  58%  72%  41°F  40°F  N/A
Tue 12:00 AM  56.2°F  49°F  6 mph NW  7 mph  10 mph  0.00"  58%  73%  41°F  40°F  N/A
Mon 11:00 PM  57.5°F  50°F  3 mph SE  7 mph  10 mph  0.00"  59%  71%  43°F  41°F  N/A
Mon 10:00 PM  57.6°F  52°F  8 mph NW  7 mph  10 mph  0.00"  58%  70%  42°F  42°F  N/A
Mon 09:00 PM  60.6°F  54°F  6 mph NW  7 mph  15 mph  0.00"  53%  68%  43°F  43°F  N/A
Mon 08:00 PM  63.7°F  56°F  7 mph NW  8 mph  14 mph  0.00"  45%  63%  41°F  43°F  N/A
Mon 07:00 PM  69.2°F  61°F  11 mph W  10 mph  20 mph  0.00"  35%  55%  40°F  44°F  N/A
Mon 06:00 PM  75.2°F  65°F  14 mph W  12 mph  22 mph  0.00"  29%  48%  40°F  44°F  N/A
Mon 05:00 PM  79.3°F  68°F  13 mph W  13 mph  21 mph  0.00"  27%  42%  41°F  43°F  N/A
Mon 04:00 PM  81.9°F  70°F  13 mph W  12 mph  17 mph  0.00"  19%  37%  34°F  41°F  N/A

  1. Current weather data. No green row appears if the current weather data is also the high or low for the current day.
  2. High temperature for the current day.
  3. Low temperature for the current day.

The Anza, California weather pages are a service of WeatherCurrents. The Anza Valley is southwestern Riverside County, east of Temecula and Aguanga, south of Mount San Jacinto and west of Mount Santa Rosa.
Copyright ©Wed Apr 25 03:41:03 PDT 2018  WeatherCurrents. All rights reserved. - Submit questions and comments - Privacy Policy

This page automatically refreshes every 10 minutes.